Time,TemperatureF,DewpointF,PressureIn,WindDirection,WindDirectionDegrees,WindSpeedMPH,WindSpeedGustMPH,Humidity,HourlyPrecipIn,Conditions,Clouds,dailyrainin,SoftwareType,DateUTC
2013-06-08 00:02:00,55.9,48.8,30.02,East,95,0.0,0.0,77,0.00,,,0.00,WeatherDisplay:10.37,2013-06-08 05:02:00,
2013-06-08 00:07:00,55.9,48.8,30.02,East,95,0.0,0.0,77,0.00,,,0.00,WeatherDisplay:10.37,2013-06-08 05:07:00,
2013-06-08 00:12:00,55.9,48.8,30.02,East,95,0.0,0.0,77,0.00,,,0.00,WeatherDisplay:10.37,2013-06-08 05:12:00,
2013-06-08 00:17:00,55.9,48.8,30.02,East,95,0.0,0.0,77,0.00,,,0.00,WeatherDisplay:10.37,2013-06-08 05:17:00,
2013-06-08 00:22:00,55.8,48.7,30.02,East,95,0.0,0.0,77,0.00,,,0.00,WeatherDisplay:10.37,2013-06-08 05:22:00,
2013-06-08 00:27:00,55.8,49.0,30.02,East,95,0.0,0.0,78,0.00,,,0.00,WeatherDisplay:10.37,2013-06-08 05:27:00,
2013-06-08 00:32:00,55.6,48.8,30.02,East,95,0.0,0.0,78,0.00,,,0.00,WeatherDisplay:10.37,2013-06-08 05:32:00,
2013-06-08 00:37:00,55.6,48.8,30.02,East,95,0.0,0.0,78,0.00,,,0.00,WeatherDisplay:10.37,2013-06-08 05:37:00,
2013-06-08 00:42:00,55.4,48.7,30.02,East,95,0.0,0.0,78,0.00,,,0.00,WeatherDisplay:10.37,2013-06-08 05:42:00,
2013-06-08 00:47:00,55.2,48.8,30.02,East,95,0.0,0.0,79,0.00,,,0.00,WeatherDisplay:10.37,2013-06-08 05:47:00,
2013-06-08 00:53:00,55.0,48.6,30.02,East,95,0.0,0.0,79,0.00,,,0.00,WeatherDisplay:10.37,2013-06-08 05:53:00,
2013-06-08 00:58:00,54.9,48.5,30.02,East,95,0.0,0.0,79,0.00,,,0.00,WeatherDisplay:10.37,2013-06-08 05:58:00,
2013-06-08 01:03:00,54.9,48.8,30.02,East,95,0.0,0.0,80,0.00,,,0.00,WeatherDisplay:10.37,2013-06-08 06:03:00,
2013-06-08 01:08:00,54.9,49.1,30.02,East,95,0.0,0.0,81,0.00,,,0.00,WeatherDisplay:10.37,2013-06-08 06:08:00,
2013-06-08 01:13:00,54.7,49.0,30.02,East,95,0.0,0.0,81,0.00,,,0.00,WeatherDisplay:10.37,2013-06-08 06:13:00,
2013-06-08 01:19:00,54.7,49.0,30.00,East,95,0.0,0.0,81,0.00,,,0.00,WeatherDisplay:10.37,2013-06-08 06:19:00,
2013-06-08 01:24:00,54.7,49.0,30.00,East,95,0.0,0.0,81,0.00,,,0.00,WeatherDisplay:10.37,2013-06-08 06:24:00,
2013-06-08 01:29:00,54.7,49.0,30.00,East,95,0.0,0.0,81,0.00,,,0.00,WeatherDisplay:10.37,2013-06-08 06:29:00,
2013-06-08 01:34:00,54.5,48.8,30.02,East,95,0.0,0.0,81,0.00,,,0.00,WeatherDisplay:10.37,2013-06-08 06:34:00,
2013-06-08 01:39:00,54.5,48.8,30.02,East,95,0.0,0.0,81,0.00,,,0.00,WeatherDisplay:10.37,2013-06-08 06:39:00,
2013-06-08 01:44:00,54.5,48.8,30.02,East,95,0.0,0.0,81,0.00,,,0.00,WeatherDisplay:10.37,2013-06-08 06:44:00,
2013-06-08 01:50:00,54.5,48.8,30.02,East,95,0.0,0.0,81,0.00,,,0.00,WeatherDisplay:10.37,2013-06-08 06:50:00,
2013-06-08 01:55:00,54.5,49.1,30.02,East,95,0.0,0.0,82,0.00,,,0.00,WeatherDisplay:10.37,2013-06-08 06:55:00,
2013-06-08 02:00:00,54.3,48.9,30.02,East,95,0.0,0.0,82,0.00,,,0.00,WeatherDisplay:10.37,2013-06-08 07:00:00,
2013-06-08 02:05:00,54.1,48.8,30.02,East,95,0.0,0.0,82,0.00,,,0.00,WeatherDisplay:10.37,2013-06-08 07:05:00,
2013-06-08 02:10:00,54.0,48.6,30.02,East,95,0.0,0.0,82,0.00,,,0.00,WeatherDisplay:10.37,2013-06-08 07:10:00,
2013-06-08 02:16:00,54.0,48.6,30.02,East,95,0.0,0.0,82,0.00,,,0.00,WeatherDisplay:10.37,2013-06-08 07:16:00,
2013-06-08 02:21:00,54.0,48.6,30.02,East,95,0.0,0.0,82,0.00,,,0.00,WeatherDisplay:10.37,2013-06-08 07:21:00,
2013-06-08 02:26:00,54.0,48.9,30.02,East,95,0.0,0.0,83,0.00,,,0.00,WeatherDisplay:10.37,2013-06-08 07:26:00,
2013-06-08 02:32:00,54.0,48.9,30.02,East,95,0.0,0.0,83,0.00,,,0.00,WeatherDisplay:10.37,2013-06-08 07:32:00,
2013-06-08 02:37:00,54.0,48.9,30.02,East,95,0.0,0.0,83,0.00,,,0.00,WeatherDisplay:10.37,2013-06-08 07:37:00,
2013-06-08 02:42:00,53.8,49.1,30.02,East,95,0.0,0.0,84,0.00,,,0.00,WeatherDisplay:10.37,2013-06-08 07:42:00,
2013-06-08 02:47:00,54.0,49.2,30.02,East,95,0.0,0.0,84,0.00,,,0.00,WeatherDisplay:10.37,2013-06-08 07:47:00,
2013-06-08 02:53:00,54.0,49.6,30.02,East,95,0.0,0.0,85,0.00,,,0.00,WeatherDisplay:10.37,2013-06-08 07:53:00,
2013-06-08 02:58:00,54.0,49.6,30.02,East,95,0.0,0.0,85,0.00,,,0.00,WeatherDisplay:10.37,2013-06-08 07:58:00,
2013-06-08 03:03:00,54.0,49.6,30.02,East,95,0.0,0.0,85,0.00,,,0.00,WeatherDisplay:10.37,2013-06-08 08:03:00,
2013-06-08 03:08:00,53.8,49.4,30.02,East,95,0.0,0.0,85,0.00,,,0.00,WeatherDisplay:10.37,2013-06-08 08:08:00,
2013-06-08 03:13:00,53.6,49.2,30.02,East,95,0.0,0.0,85,0.00,,,0.00,WeatherDisplay:10.37,2013-06-08 08:13:00,
2013-06-08 03:19:00,53.6,49.2,30.02,East,95,0.0,0.0,85,0.00,,,0.00,WeatherDisplay:10.37,2013-06-08 08:19:00,
2013-06-08 03:24:00,53.4,49.0,30.02,East,95,0.0,0.0,85,0.00,,,0.00,WeatherDisplay:10.37,2013-06-08 08:24:00,
2013-06-08 03:29:00,53.4,49.0,30.02,East,95,0.0,0.0,85,0.00,,,0.00,WeatherDisplay:10.37,2013-06-08 08:29:00,
2013-06-08 03:34:00,53.2,48.8,30.02,East,95,0.0,0.0,85,0.00,,,0.00,WeatherDisplay:10.37,2013-06-08 08:34:00,
2013-06-08 03:39:00,53.2,48.8,30.02,East,95,0.0,0.0,85,0.00,,,0.00,WeatherDisplay:10.37,2013-06-08 08:39:00,
2013-06-08 03:44:00,53.2,49.2,30.02,East,95,0.0,0.0,86,0.00,,,0.00,WeatherDisplay:10.37,2013-06-08 08:44:00,
2013-06-08 03:49:00,53.4,49.3,30.02,East,95,0.0,0.0,86,0.00,,,0.00,WeatherDisplay:10.37,2013-06-08 08:49:00,
2013-06-08 03:55:00,53.2,49.5,30.02,East,95,0.0,0.0,87,0.00,,,0.00,WeatherDisplay:10.37,2013-06-08 08:55:00,
2013-06-08 04:00:00,53.2,49.5,30.02,East,95,0.0,0.0,87,0.00,,,0.00,WeatherDisplay:10.37,2013-06-08 09:00:00,
2013-06-08 04:05:00,53.2,49.5,30.02,East,95,0.0,0.0,87,0.00,,,0.00,WeatherDisplay:10.37,2013-06-08 09:05:00,
2013-06-08 04:10:00,53.1,49.3,30.02,East,95,0.0,0.0,87,0.00,,,0.00,WeatherDisplay:10.37,2013-06-08 09:10:00,
2013-06-08 04:15:00,53.1,49.3,30.02,East,95,0.0,0.0,87,0.00,,,0.00,WeatherDisplay:10.37,2013-06-08 09:15:00,
2013-06-08 04:20:00,53.1,49.3,30.02,East,95,0.0,0.0,87,0.00,,,0.00,WeatherDisplay:10.37,2013-06-08 09:20:00,
2013-06-08 04:26:00,53.1,49.3,30.02,East,95,0.0,0.0,87,0.00,,,0.00,WeatherDisplay:10.37,2013-06-08 09:26:00,
2013-06-08 04:31:00,53.1,49.3,30.02,East,95,0.0,0.0,87,0.00,,,0.00,WeatherDisplay:10.37,2013-06-08 09:31:00,
2013-06-08 04:36:00,52.9,49.4,30.02,East,95,0.0,0.0,88,0.00,,,0.00,WeatherDisplay:10.37,2013-06-08 09:36:00,
2013-06-08 04:41:00,52.9,49.4,30.02,East,95,0.0,0.0,88,0.00,,,0.00,WeatherDisplay:10.37,2013-06-08 09:41:00,
2013-06-08 04:46:00,52.9,49.4,30.02,East,95,0.0,0.0,88,0.00,,,0.00,WeatherDisplay:10.37,2013-06-08 09:46:00,
2013-06-08 04:51:00,52.9,49.4,30.02,East,95,0.0,0.0,88,0.00,,,0.00,WeatherDisplay:10.37,2013-06-08 09:51:00,
2013-06-08 04:57:00,52.9,49.4,30.02,East,95,0.0,0.0,88,0.00,,,0.00,WeatherDisplay:10.37,2013-06-08 09:57:00,
2013-06-08 05:02:00,52.9,49.7,30.02,East,95,0.0,0.0,89,0.00,,,0.00,WeatherDisplay:10.37,2013-06-08 10:02:00,
2013-06-08 05:07:00,52.9,49.7,30.02,East,95,0.0,0.0,89,0.00,,,0.00,WeatherDisplay:10.37,2013-06-08 10:07:00,
2013-06-08 05:12:00,52.9,49.7,30.02,East,95,0.0,0.0,89,0.00,,,0.00,WeatherDisplay:10.37,2013-06-08 10:12:00,
2013-06-08 05:17:00,52.9,50.0,30.00,East,95,0.0,0.0,90,0.00,,,0.00,WeatherDisplay:10.37,2013-06-08 10:17:00,
2013-06-08 05:23:00,53.1,50.2,30.00,East,95,0.0,0.0,90,0.00,,,0.00,WeatherDisplay:10.37,2013-06-08 10:23:00,
2013-06-08 05:28:00,53.1,50.2,30.00,East,95,0.0,0.0,90,0.00,,,0.00,WeatherDisplay:10.37,2013-06-08 10:28:00,
2013-06-08 05:33:00,53.1,50.5,30.02,East,95,0.0,0.0,91,0.00,,,0.00,WeatherDisplay:10.37,2013-06-08 10:33:00,
2013-06-08 05:38:00,53.2,50.7,30.02,East,95,0.0,0.0,91,0.00,,,0.00,WeatherDisplay:10.37,2013-06-08 10:38:00,
2013-06-08 05:43:00,53.2,50.7,30.02,East,95,0.0,0.0,91,0.00,,,0.00,WeatherDisplay:10.37,2013-06-08 10:43:00,
2013-06-08 05:48:00,53.2,50.7,30.02,East,95,0.0,0.0,91,0.00,,,0.00,WeatherDisplay:10.37,2013-06-08 10:48:00,
2013-06-08 05:53:00,53.4,51.2,30.02,East,95,0.0,0.0,92,0.00,,,0.00,WeatherDisplay:10.37,2013-06-08 10:53:00,
2013-06-08 05:58:00,53.4,51.2,30.02,East,95,0.0,0.0,92,0.00,,,0.00,WeatherDisplay:10.37,2013-06-08 10:58:00,
2013-06-08 06:03:00,53.6,51.3,30.02,East,95,0.0,0.0,92,0.00,,,0.00,WeatherDisplay:10.37,2013-06-08 11:03:00,
2013-06-08 06:09:00,53.6,51.3,30.02,East,84,0.0,0.0,92,0.00,,,0.00,WeatherDisplay:10.37,2013-06-08 11:09:00,
2013-06-08 06:14:00,53.8,51.5,30.02,ENE,77,2.3,0.0,92,0.00,,,0.00,WeatherDisplay:10.37,2013-06-08 11:14:00,
2013-06-08 06:19:00,53.8,51.8,30.02,East,82,0.0,0.0,93,0.00,,,0.00,WeatherDisplay:10.37,2013-06-08 11:19:00,
2013-06-08 06:24:00,53.8,51.8,30.02,NE,50,0.0,0.0,93,0.00,,,0.00,WeatherDisplay:10.37,2013-06-08 11:24:00,
2013-06-08 06:29:00,53.8,51.8,30.02,NE,50,0.0,0.0,93,0.00,,,0.00,WeatherDisplay:10.37,2013-06-08 11:29:00,
2013-06-08 06:35:00,54.0,52.0,30.02,NE,50,0.0,0.0,93,0.00,,,0.00,WeatherDisplay:10.37,2013-06-08 11:35:00,
2013-06-08 06:40:00,54.1,52.5,30.02,NE,50,0.0,0.0,94,0.00,,,0.00,WeatherDisplay:10.37,2013-06-08 11:40:00,
2013-06-08 06:45:00,54.3,52.6,30.02,NE,50,0.0,0.0,94,0.00,,,0.00,WeatherDisplay:10.37,2013-06-08 11:45:00,
2013-06-08 06:50:00,54.5,52.8,30.02,NE,50,0.0,0.0,94,0.00,,,0.00,WeatherDisplay:10.37,2013-06-08 11:50:00,
2013-06-08 06:55:00,54.7,53.0,30.02,NE,50,0.0,0.0,94,0.00,,,0.00,WeatherDisplay:10.37,2013-06-08 11:55:00,
2013-06-08 07:01:00,54.7,53.0,30.02,NE,50,0.0,0.0,94,0.00,,,0.00,WeatherDisplay:10.37,2013-06-08 12:01:00,
2013-06-08 07:06:00,54.9,53.2,30.02,NE,50,0.0,0.0,94,0.00,,,0.00,WeatherDisplay:10.37,2013-06-08 12:06:00,
2013-06-08 07:11:00,55.0,53.3,30.02,NE,50,0.0,0.0,94,0.00,,,0.00,WeatherDisplay:10.37,2013-06-08 12:11:00,
2013-06-08 07:16:00,55.2,53.5,30.02,NE,50,0.0,0.0,94,0.00,,,0.00,WeatherDisplay:10.37,2013-06-08 12:16:00,
2013-06-08 07:21:00,55.4,53.7,30.02,NE,50,0.0,0.0,94,0.00,,,0.00,WeatherDisplay:10.37,2013-06-08 12:21:00,
2013-06-08 07:26:00,55.6,53.9,30.02,ENE,67,0.0,0.0,94,0.00,,,0.00,WeatherDisplay:10.37,2013-06-08 12:26:00,
2013-06-08 07:31:00,55.8,54.1,30.02,ENE,67,0.0,0.0,94,0.00,,,0.00,WeatherDisplay:10.37,2013-06-08 12:31:00,
2013-06-08 07:37:00,55.9,54.2,30.02,ENE,67,0.0,0.0,94,0.00,,,0.00,WeatherDisplay:10.37,2013-06-08 12:37:00,
2013-06-08 07:42:00,56.3,54.6,30.02,ENE,67,0.0,0.0,94,0.00,,,0.00,WeatherDisplay:10.37,2013-06-08 12:42:00,
2013-06-08 07:47:00,56.7,55.0,30.02,NE,35,2.7,0.0,94,0.00,,,0.00,WeatherDisplay:10.37,2013-06-08 12:47:00,
2013-06-08 07:52:00,56.8,54.8,30.02,ENE,71,0.0,0.0,93,0.00,,,0.00,WeatherDisplay:10.37,2013-06-08 12:52:00,
2013-06-08 07:58:00,57.2,55.2,30.02,East,99,0.0,0.0,93,0.00,,,0.00,WeatherDisplay:10.37,2013-06-08 12:58:00,
2013-06-08 08:03:00,57.9,55.6,30.02,East,87,2.3,0.0,92,0.00,,,0.00,WeatherDisplay:10.37,2013-06-08 13:03:00,
2013-06-08 08:08:00,58.3,55.1,30.02,ESE,115,3.5,3.5,89,0.00,,,0.00,WeatherDisplay:10.37,2013-06-08 13:08:00,
2013-06-08 08:13:00,58.6,54.8,30.02,SE,124,2.3,2.3,87,0.00,,,0.00,WeatherDisplay:10.37,2013-06-08 13:13:00,
2013-06-08 08:18:00,59.0,54.2,30.02,East,101,3.5,3.5,84,0.00,,,0.00,WeatherDisplay:10.37,2013-06-08 13:18:00,
2013-06-08 08:23:00,59.7,54.2,30.02,NE,43,2.3,2.7,82,0.00,,,0.00,WeatherDisplay:10.37,2013-06-08 13:23:00,
2013-06-08 08:28:00,60.3,53.4,30.02,East,100,4.0,4.0,78,0.00,,,0.00,WeatherDisplay:10.37,2013-06-08 13:28:00,
2013-06-08 08:33:00,60.6,52.6,30.02,ENE,66,3.5,3.5,75,0.00,,,0.00,WeatherDisplay:10.37,2013-06-08 13:33:00,
2013-06-08 08:38:00,61.3,53.0,30.02,NE,53,2.3,0.0,74,0.00,,,0.00,WeatherDisplay:10.37,2013-06-08 13:38:00,
2013-06-08 08:44:00,62.1,52.9,30.02,SSE,150,2.3,2.3,72,0.00,,,0.00,WeatherDisplay:10.37,2013-06-08 13:44:00,
2013-06-08 08:49:00,62.1,51.8,30.02,ESE,103,4.6,4.6,69,0.00,,,0.00,WeatherDisplay:10.37,2013-06-08 13:49:00,
2013-06-08 08:54:00,62.1,51.0,30.02,East,98,3.5,3.5,67,0.00,,,0.00,WeatherDisplay:10.37,2013-06-08 13:54:00,
2013-06-08 08:59:00,61.9,50.8,30.02,South,171,3.5,3.5,67,0.00,,,0.00,WeatherDisplay:10.37,2013-06-08 13:59:00,
2013-06-08 09:04:00,62.2,51.1,30.05,East,86,3.5,0.0,67,0.00,,,0.00,WeatherDisplay:10.37,2013-06-08 14:04:00,
2013-06-08 09:10:00,63.0,51.4,30.05,SE,137,3.5,3.5,66,0.00,,,0.00,WeatherDisplay:10.37,2013-06-08 14:10:00,
2013-06-08 09:15:00,63.7,51.7,30.05,East,87,4.6,4.6,65,0.00,,,0.00,WeatherDisplay:10.37,2013-06-08 14:15:00,
2013-06-08 09:20:00,64.2,51.8,30.05,ENE,72,3.5,3.6,64,0.00,,,0.00,WeatherDisplay:10.37,2013-06-08 14:20:00,
2013-06-08 09:25:00,64.6,51.7,30.05,NE,43,3.5,3.5,63,0.00,,,0.00,WeatherDisplay:10.37,2013-06-08 14:25:00,
2013-06-08 09:30:00,65.1,52.2,30.05,ESE,119,3.5,3.5,63,0.00,,,0.00,WeatherDisplay:10.37,2013-06-08 14:30:00,
2013-06-08 09:35:00,65.3,52.4,30.05,East,84,5.8,5.8,63,0.00,,,0.00,WeatherDisplay:10.37,2013-06-08 14:35:00,
2013-06-08 09:41:00,65.7,52.7,30.05,East,98,4.6,4.6,63,0.00,,,0.00,WeatherDisplay:10.37,2013-06-08 14:41:00,
2013-06-08 09:46:00,66.0,52.6,30.05,NNE,33,3.5,3.6,62,0.00,,,0.00,WeatherDisplay:10.37,2013-06-08 14:46:00,
2013-06-08 09:51:00,66.4,52.1,30.05,ESE,103,5.8,5.8,60,0.00,,,0.00,WeatherDisplay:10.37,2013-06-08 14:51:00,
2013-06-08 09:56:00,66.9,52.6,30.05,South,173,5.4,5.4,60,0.00,,,0.00,WeatherDisplay:10.37,2013-06-08 14:56:00,
2013-06-08 10:01:00,67.6,52.8,30.05,SE,124,5.8,5.8,59,0.00,,,0.00,WeatherDisplay:10.37,2013-06-08 15:01:00,
2013-06-08 10:07:00,68.0,52.7,30.05,SE,134,5.8,5.8,58,0.00,,,0.00,WeatherDisplay:10.37,2013-06-08 15:07:00,
2013-06-08 10:12:00,68.5,53.2,30.05,East,94,3.5,0.0,58,0.00,,,0.00,WeatherDisplay:10.37,2013-06-08 15:12:00,
2013-06-08 10:17:00,68.7,52.4,30.02,SE,132,5.8,5.8,56,0.00,,,0.00,WeatherDisplay:10.37,2013-06-08 15:17:00,
2013-06-08 10:22:00,68.7,52.4,30.02,ESE,102,3.5,0.0,56,0.00,,,0.00,WeatherDisplay:10.37,2013-06-08 15:22:00,
2013-06-08 10:28:00,68.7,52.9,30.02,ENE,78,3.5,3.5,57,0.00,,,0.00,WeatherDisplay:10.37,2013-06-08 15:28:00,
2013-06-08 10:33:00,69.3,52.4,30.05,SE,134,8.1,8.1,55,0.00,,,0.00,WeatherDisplay:10.37,2013-06-08 15:33:00,
2013-06-08 10:38:00,69.6,53.2,30.05,East,101,3.5,3.5,56,0.00,,,0.00,WeatherDisplay:10.37,2013-06-08 15:38:00,
2013-06-08 10:43:00,69.8,52.9,30.05,SE,135,3.6,3.6,55,0.00,,,0.00,WeatherDisplay:10.37,2013-06-08 15:43:00,
2013-06-08 10:48:00,69.3,52.9,30.02,East,90,3.5,3.6,56,0.00,,,0.00,WeatherDisplay:10.37,2013-06-08 15:48:00,
2013-06-08 10:53:00,70.0,53.1,30.02,ESE,118,3.5,3.6,55,0.00,,,0.00,WeatherDisplay:10.37,2013-06-08 15:53:00,
2013-06-08 10:59:00,70.7,53.7,30.02,SE,138,3.6,3.6,55,0.00,,,0.00,WeatherDisplay:10.37,2013-06-08 15:59:00,
2013-06-08 11:04:00,71.2,54.2,30.05,SE,133,3.5,3.6,55,0.00,,,0.00,WeatherDisplay:10.37,2013-06-08 16:04:00,
2013-06-08 11:09:00,71.6,54.1,30.05,ENE,61,3.5,3.5,54,0.00,,,0.00,WeatherDisplay:10.37,2013-06-08 16:09:00,
2013-06-08 11:14:00,71.4,53.9,30.05,ENE,75,3.5,3.6,54,0.00,,,0.00,WeatherDisplay:10.37,2013-06-08 16:14:00,
2013-06-08 11:19:00,71.1,53.1,30.05,East,95,5.4,5.4,53,0.00,,,0.00,WeatherDisplay:10.37,2013-06-08 16:19:00,
2013-06-08 11:24:00,70.9,52.9,30.05,SSE,150,4.6,4.6,53,0.00,,,0.00,WeatherDisplay:10.37,2013-06-08 16:24:00,
2013-06-08 11:29:00,70.3,52.9,30.05,SE,128,3.5,3.5,54,0.00,,,0.00,WeatherDisplay:10.37,2013-06-08 16:29:00,
2013-06-08 11:35:00,70.0,52.6,30.05,East,97,3.5,3.5,54,0.00,,,0.00,WeatherDisplay:10.37,2013-06-08 16:35:00,
2013-06-08 11:40:00,70.2,53.2,30.05,South,174,3.5,3.5,55,0.00,,,0.00,WeatherDisplay:10.37,2013-06-08 16:40:00,
2013-06-08 11:45:00,70.5,53.1,30.05,SSE,163,3.5,0.0,54,0.00,,,0.00,WeatherDisplay:10.37,2013-06-08 16:45:00,
2013-06-08 11:50:00,70.7,53.2,30.05,ESE,120,3.5,3.6,54,0.00,,,0.00,WeatherDisplay:10.37,2013-06-08 16:50:00,
2013-06-08 11:56:00,70.5,53.1,30.05,ESE,103,5.8,5.8,54,0.00,,,0.00,WeatherDisplay:10.37,2013-06-08 16:56:00,
2013-06-08 12:01:00,70.5,53.1,30.05,SE,133,3.5,3.5,54,0.00,,,0.00,WeatherDisplay:10.37,2013-06-08 17:01:00,
2013-06-08 12:06:00,70.9,53.4,30.05,East,101,5.8,5.8,54,0.00,,,0.00,WeatherDisplay:10.37,2013-06-08 17:06:00,
2013-06-08 12:11:00,70.9,53.4,30.05,South,186,5.8,5.8,54,0.00,,,0.00,WeatherDisplay:10.37,2013-06-08 17:11:00,
2013-06-08 12:16:00,70.5,53.1,30.05,ESE,102,3.5,3.5,54,0.00,,,0.00,WeatherDisplay:10.37,2013-06-08 17:16:00,
2013-06-08 12:21:00,70.9,53.4,30.05,ENE,67,4.6,4.6,54,0.00,,,0.00,WeatherDisplay:10.37,2013-06-08 17:21:00,
2013-06-08 12:26:00,71.2,53.7,30.05,ESE,108,2.3,3.1,54,0.00,,,0.00,WeatherDisplay:10.37,2013-06-08 17:26:00,
2013-06-08 12:32:00,71.8,54.2,30.05,SE,137,3.5,3.5,54,0.00,,,0.00,WeatherDisplay:10.37,2013-06-08 17:32:00,
2013-06-08 12:37:00,71.6,53.6,30.05,East,85,3.5,3.5,53,0.00,,,0.00,WeatherDisplay:10.37,2013-06-08 17:37:00,
2013-06-08 12:42:00,71.6,53.6,30.05,East,99,3.5,3.5,53,0.00,,,0.00,WeatherDisplay:10.37,2013-06-08 17:42:00,
2013-06-08 12:47:00,71.6,53.6,30.02,SSE,163,3.5,3.5,53,0.00,,,0.00,WeatherDisplay:10.37,2013-06-08 17:47:00,
2013-06-08 12:52:00,71.2,53.7,30.02,East,87,3.5,3.5,54,0.00,,,0.00,WeatherDisplay:10.37,2013-06-08 17:52:00,
2013-06-08 12:57:00,71.6,53.6,30.02,SE,133,3.5,3.5,53,0.00,,,0.00,WeatherDisplay:10.37,2013-06-08 17:57:00,
2013-06-08 13:02:00,71.2,53.7,30.05,SSE,167,3.5,3.5,54,0.00,,,0.00,WeatherDisplay:10.37,2013-06-08 18:02:00,
2013-06-08 13:07:00,71.2,53.7,30.05,ESE,117,5.8,5.8,54,0.00,,,0.00,WeatherDisplay:10.37,2013-06-08 18:07:00,
2013-06-08 13:12:00,71.1,53.1,30.05,ENE,69,3.5,3.5,53,0.00,,,0.00,WeatherDisplay:10.37,2013-06-08 18:12:00,
2013-06-08 13:17:00,70.7,53.2,30.02,East,93,3.5,3.5,54,0.00,,,0.00,WeatherDisplay:10.37,2013-06-08 18:17:00,
2013-06-08 13:22:00,70.3,52.9,30.02,NW,323,3.5,3.5,54,0.00,,,0.00,WeatherDisplay:10.37,2013-06-08 18:22:00,
2013-06-08 13:28:00,71.1,53.6,30.02,East,83,5.8,5.8,54,0.00,,,0.00,WeatherDisplay:10.37,2013-06-08 18:28:00,
2013-06-08 13:33:00,70.7,53.2,30.02,SE,125,5.8,5.8,54,0.00,,,0.00,WeatherDisplay:10.37,2013-06-08 18:33:00,
2013-06-08 13:38:00,70.3,52.9,30.02,East,89,4.6,4.6,54,0.00,,,0.00,WeatherDisplay:10.37,2013-06-08 18:38:00,
2013-06-08 13:43:00,70.3,52.9,30.02,SSE,166,3.6,3.6,54,0.00,,,0.00,WeatherDisplay:10.37,2013-06-08 18:43:00,
2013-06-08 13:48:00,70.3,52.9,30.02,SE,135,3.5,3.5,54,0.00,,,0.00,WeatherDisplay:10.37,2013-06-08 18:48:00,
2013-06-08 13:53:00,70.3,52.9,30.02,SSE,147,5.8,5.8,54,0.00,,,0.00,WeatherDisplay:10.37,2013-06-08 18:53:00,
2013-06-08 13:58:00,70.2,52.7,30.02,East,101,3.5,3.5,54,0.00,,,0.00,WeatherDisplay:10.37,2013-06-08 18:58:00,
2013-06-08 14:03:00,70.0,52.6,30.02,SSE,154,4.6,4.6,54,0.00,,,0.00,WeatherDisplay:10.37,2013-06-08 19:03:00,
2013-06-08 14:09:00,70.0,52.6,30.02,ENE,75,4.6,4.6,54,0.00,,,0.00,WeatherDisplay:10.37,2013-06-08 19:09:00,
2013-06-08 14:14:00,69.8,52.4,30.02,East,98,4.0,4.0,54,0.00,,,0.00,WeatherDisplay:10.37,2013-06-08 19:14:00,
2013-06-08 14:19:00,69.8,52.9,30.02,SE,143,3.5,3.5,55,0.00,,,0.00,WeatherDisplay:10.37,2013-06-08 19:19:00,
2013-06-08 14:24:00,69.8,52.4,30.02,SE,125,8.1,8.1,54,0.00,,,0.00,WeatherDisplay:10.37,2013-06-08 19:24:00,
2013-06-08 14:29:00,69.4,52.6,30.02,SSE,150,5.8,5.8,55,0.00,,,0.00,WeatherDisplay:10.37,2013-06-08 19:29:00,
2013-06-08 14:34:00,69.4,52.6,30.05,ESE,103,3.5,3.5,55,0.00,,,0.00,WeatherDisplay:10.37,2013-06-08 19:34:00,
2013-06-08 14:39:00,69.4,52.6,30.05,SSE,157,5.8,5.8,55,0.00,,,0.00,WeatherDisplay:10.37,2013-06-08 19:39:00,
2013-06-08 14:44:00,69.3,52.4,30.05,East,99,3.5,3.5,55,0.00,,,0.00,WeatherDisplay:10.37,2013-06-08 19:44:00,
2013-06-08 14:49:00,69.3,52.4,30.02,East,92,3.5,3.5,55,0.00,,,0.00,WeatherDisplay:10.37,2013-06-08 19:49:00,
2013-06-08 14:54:00,69.4,52.6,30.02,South,176,3.5,3.5,55,0.00,,,0.00,WeatherDisplay:10.37,2013-06-08 19:54:00,
2013-06-08 14:59:00,69.4,52.6,30.02,ENE,65,3.5,3.5,55,0.00,,,0.00,WeatherDisplay:10.37,2013-06-08 19:59:00,
2013-06-08 15:04:00,69.4,52.6,30.02,East,99,3.5,3.5,55,0.00,,,0.00,WeatherDisplay:10.37,2013-06-08 20:04:00,
2013-06-08 15:09:00,69.3,52.4,30.02,SSE,163,3.5,3.6,55,0.00,,,0.00,WeatherDisplay:10.37,2013-06-08 20:09:00,
2013-06-08 15:15:00,69.1,52.2,30.02,ENE,72,5.8,5.8,55,0.00,,,0.00,WeatherDisplay:10.37,2013-06-08 20:15:00,
2013-06-08 15:20:00,69.4,52.6,30.05,East,100,3.5,3.5,55,0.00,,,0.00,WeatherDisplay:10.37,2013-06-08 20:20:00,
2013-06-08 15:25:00,69.6,52.7,30.05,ESE,116,3.5,0.0,55,0.00,,,0.00,WeatherDisplay:10.37,2013-06-08 20:25:00,
2013-06-08 15:30:00,69.4,52.6,30.05,East,85,3.5,3.5,55,0.00,,,0.00,WeatherDisplay:10.37,2013-06-08 20:30:00,
2013-06-08 15:35:00,69.4,53.1,30.05,SSE,164,3.5,3.5,56,0.00,,,0.00,WeatherDisplay:10.37,2013-06-08 20:35:00,
2013-06-08 15:40:00,69.6,52.7,30.05,SSE,155,3.6,3.6,55,0.00,,,0.00,WeatherDisplay:10.37,2013-06-08 20:40:00,
2013-06-08 15:45:00,69.6,52.7,30.05,East,96,3.5,3.5,55,0.00,,,0.00,WeatherDisplay:10.37,2013-06-08 20:45:00,
2013-06-08 15:50:00,69.4,52.6,30.02,SE,131,3.6,3.6,55,0.00,,,0.00,WeatherDisplay:10.37,2013-06-08 20:50:00,
2013-06-08 15:56:00,69.3,52.4,30.02,SE,139,5.8,5.8,55,0.00,,,0.00,WeatherDisplay:10.37,2013-06-08 20:56:00,
2013-06-08 16:01:00,69.3,52.9,30.02,East,83,4.6,4.6,56,0.00,,,0.00,WeatherDisplay:10.37,2013-06-08 21:01:00,
2013-06-08 16:06:00,69.6,53.2,30.02,SE,140,3.6,3.6,56,0.00,,,0.00,WeatherDisplay:10.37,2013-06-08 21:06:00,
2013-06-08 16:11:00,69.8,52.9,30.02,ESE,116,3.5,3.5,55,0.00,,,0.00,WeatherDisplay:10.37,2013-06-08 21:11:00,
2013-06-08 16:17:00,69.6,52.7,30.05,East,94,3.5,3.5,55,0.00,,,0.00,WeatherDisplay:10.37,2013-06-08 21:17:00,
2013-06-08 16:22:00,69.4,52.6,30.05,East,93,3.5,3.5,55,0.00,,,0.00,WeatherDisplay:10.37,2013-06-08 21:22:00,
2013-06-08 16:27:00,69.4,52.6,30.05,ESE,108,3.5,3.5,55,0.00,,,0.00,WeatherDisplay:10.37,2013-06-08 21:27:00,
2013-06-08 16:32:00,69.4,52.6,30.05,East,94,3.5,3.5,55,0.00,,,0.00,WeatherDisplay:10.37,2013-06-08 21:32:00,
2013-06-08 16:37:00,69.4,53.1,30.05,SSE,165,5.8,5.8,56,0.00,,,0.00,WeatherDisplay:10.37,2013-06-08 21:37:00,
2013-06-08 16:42:00,69.4,53.1,30.05,SSE,157,3.5,0.0,56,0.00,,,0.00,WeatherDisplay:10.37,2013-06-08 21:42:00,
2013-06-08 16:47:00,69.4,52.6,30.05,ESE,112,3.5,3.5,55,0.00,,,0.00,WeatherDisplay:10.37,2013-06-08 21:47:00,
2013-06-08 16:52:00,69.3,52.4,30.05,East,86,3.5,3.5,55,0.00,,,0.00,WeatherDisplay:10.37,2013-06-08 21:52:00,
2013-06-08 16:57:00,69.3,52.9,30.05,East,93,3.5,3.5,56,0.00,,,0.00,WeatherDisplay:10.37,2013-06-08 21:57:00,
2013-06-08 17:02:00,69.4,53.1,30.05,SSE,165,3.5,3.5,56,0.00,,,0.00,WeatherDisplay:10.37,2013-06-08 22:02:00,
2013-06-08 17:07:00,70.0,53.1,30.05,SSE,157,5.8,5.8,55,0.00,,,0.00,WeatherDisplay:10.37,2013-06-08 22:07:00,
2013-06-08 17:12:00,70.0,53.1,30.05,SE,126,5.8,5.8,55,0.00,,,0.00,WeatherDisplay:10.37,2013-06-08 22:12:00,
2013-06-08 17:18:00,70.2,53.2,30.05,East,88,0.0,0.0,55,0.00,,,0.00,WeatherDisplay:10.37,2013-06-08 22:18:00,
2013-06-08 17:23:00,70.0,53.1,30.05,East,86,3.5,3.5,55,0.00,,,0.00,WeatherDisplay:10.37,2013-06-08 22:23:00,
2013-06-08 17:28:00,69.6,52.7,30.05,SE,133,3.5,3.5,55,0.00,,,0.00,WeatherDisplay:10.37,2013-06-08 22:28:00,
2013-06-08 17:33:00,69.4,52.6,30.02,East,89,3.5,3.5,55,0.00,,,0.00,WeatherDisplay:10.37,2013-06-08 22:33:00,
2013-06-08 17:38:00,69.3,52.9,30.02,SE,125,3.5,3.5,56,0.00,,,0.00,WeatherDisplay:10.37,2013-06-08 22:38:00,
2013-06-08 17:43:00,69.4,53.1,30.02,SE,131,3.5,3.5,56,0.00,,,0.00,WeatherDisplay:10.37,2013-06-08 22:43:00,
2013-06-08 17:48:00,69.4,53.1,30.05,SSE,152,5.8,5.8,56,0.00,,,0.00,WeatherDisplay:10.37,2013-06-08 22:48:00,
2013-06-08 17:53:00,69.3,52.9,30.05,SSE,162,4.6,4.6,56,0.00,,,0.00,WeatherDisplay:10.37,2013-06-08 22:53:00,
2013-06-08 17:59:00,68.9,52.6,30.05,South,170,2.3,2.3,56,0.00,,,0.00,WeatherDisplay:10.37,2013-06-08 22:59:00,
2013-06-08 18:04:00,68.7,52.4,30.05,SE,126,2.3,2.3,56,0.00,,,0.00,WeatherDisplay:10.37,2013-06-08 23:04:00,
2013-06-08 18:09:00,68.9,52.6,30.05,South,172,2.3,0.0,56,0.00,,,0.00,WeatherDisplay:10.37,2013-06-08 23:09:00,
2013-06-08 18:14:00,68.9,52.1,30.05,SE,133,3.5,3.5,55,0.00,,,0.00,WeatherDisplay:10.37,2013-06-08 23:14:00,
2013-06-08 18:19:00,68.9,52.1,30.05,SE,129,4.6,4.6,55,0.00,,,0.00,WeatherDisplay:10.37,2013-06-08 23:19:00,
2013-06-08 18:24:00,68.9,51.6,30.05,SSW,200,3.5,3.5,54,0.00,,,0.00,WeatherDisplay:10.37,2013-06-08 23:24:00,
2013-06-08 18:29:00,68.5,51.2,30.05,SSE,158,3.5,3.5,54,0.00,,,0.00,WeatherDisplay:10.37,2013-06-08 23:29:00,
2013-06-08 18:35:00,68.2,50.9,30.05,East,82,3.5,3.5,54,0.00,,,0.00,WeatherDisplay:10.37,2013-06-08 23:35:00,
2013-06-08 18:40:00,67.8,51.1,30.05,SSE,149,3.5,3.5,55,0.00,,,0.00,WeatherDisplay:10.37,2013-06-08 23:40:00,
2013-06-08 18:45:00,67.6,50.9,30.05,SSE,162,4.6,0.0,55,0.00,,,0.00,WeatherDisplay:10.37,2013-06-08 23:45:00,
2013-06-08 18:50:00,67.3,51.0,30.05,ESE,120,3.5,3.5,56,0.00,,,0.00,WeatherDisplay:10.37,2013-06-08 23:50:00,
2013-06-08 18:55:00,67.1,50.9,30.05,SE,133,3.6,3.6,56,0.00,,,0.00,WeatherDisplay:10.37,2013-06-08 23:55:00,
2013-06-08 19:01:00,66.9,51.2,30.05,SE,136,3.5,3.5,57,0.00,,,0.00,WeatherDisplay:10.37,2013-06-09 00:01:00,
2013-06-08 19:06:00,66.9,51.2,30.05,SE,142,3.5,3.5,57,0.00,,,0.00,WeatherDisplay:10.37,2013-06-09 00:06:00,
2013-06-08 19:11:00,66.9,51.7,30.05,South,182,3.5,3.5,58,0.00,,,0.00,WeatherDisplay:10.37,2013-06-09 00:11:00,
2013-06-08 19:16:00,66.7,51.5,30.05,SSE,154,5.8,5.8,58,0.00,,,0.00,WeatherDisplay:10.37,2013-06-09 00:16:00,
2013-06-08 19:21:00,66.6,50.8,30.05,SSE,149,4.6,4.6,57,0.00,,,0.00,WeatherDisplay:10.37,2013-06-09 00:21:00,
2013-06-08 19:26:00,66.4,50.7,30.05,SSE,162,3.5,3.5,57,0.00,,,0.00,WeatherDisplay:10.37,2013-06-09 00:26:00,
2013-06-08 19:32:00,66.0,50.3,30.05,South,177,2.3,0.0,57,0.00,,,0.00,WeatherDisplay:10.37,2013-06-09 00:32:00,
2013-06-08 19:37:00,65.8,50.6,30.05,SSE,156,2.3,0.0,58,0.00,,,0.00,WeatherDisplay:10.37,2013-06-09 00:37:00,
2013-06-08 19:42:00,65.5,50.3,30.05,SSE,156,3.6,3.6,58,0.00,,,0.00,WeatherDisplay:10.37,2013-06-09 00:42:00,
2013-06-08 19:47:00,65.1,50.0,30.05,SE,140,2.3,2.7,58,0.00,,,0.00,WeatherDisplay:10.37,2013-06-09 00:47:00,
2013-06-08 19:52:00,64.8,49.6,30.05,SE,143,2.3,0.0,58,0.00,,,0.00,WeatherDisplay:10.37,2013-06-09 00:52:00,
2013-06-08 19:57:00,64.4,48.8,30.05,SSE,156,2.3,0.0,57,0.00,,,0.00,WeatherDisplay:10.37,2013-06-09 00:57:00,
2013-06-08 20:03:00,64.2,49.1,30.05,SE,140,0.0,0.0,58,0.00,,,0.00,WeatherDisplay:10.37,2013-06-09 01:03:00,
2013-06-08 20:08:00,63.9,49.2,30.05,SE,140,0.0,0.0,59,0.00,,,0.00,WeatherDisplay:10.37,2013-06-09 01:08:00,
2013-06-08 20:13:00,63.5,48.9,30.05,ESE,103,0.0,0.0,59,0.00,,,0.00,WeatherDisplay:10.37,2013-06-09 01:13:00,
2013-06-08 20:18:00,63.3,49.2,30.05,ESE,103,0.0,0.0,60,0.00,,,0.00,WeatherDisplay:10.37,2013-06-09 01:18:00,
2013-06-08 20:23:00,63.1,49.0,30.05,ESE,103,0.0,0.0,60,0.00,,,0.00,WeatherDisplay:10.37,2013-06-09 01:23:00,
2013-06-08 20:28:00,62.8,49.1,30.05,ESE,103,0.0,0.0,61,0.00,,,0.00,WeatherDisplay:10.37,2013-06-09 01:28:00,
2013-06-08 20:34:00,62.6,49.0,30.05,ESE,103,0.0,0.0,61,0.00,,,0.00,WeatherDisplay:10.37,2013-06-09 01:34:00,
2013-06-08 20:39:00,62.2,48.6,30.05,SSE,161,0.0,0.0,61,0.00,,,0.00,WeatherDisplay:10.37,2013-06-09 01:39:00,
2013-06-08 20:44:00,61.9,48.7,30.05,SSE,161,0.0,0.0,62,0.00,,,0.00,WeatherDisplay:10.37,2013-06-09 01:44:00,
2013-06-08 20:49:00,61.7,48.5,30.05,SSE,161,0.0,0.0,62,0.00,,,0.00,WeatherDisplay:10.37,2013-06-09 01:49:00,
2013-06-08 20:54:00,61.3,48.6,30.05,SSE,161,0.0,0.0,63,0.00,,,0.00,WeatherDisplay:10.37,2013-06-09 01:54:00,
2013-06-08 20:59:00,61.0,48.7,30.05,SSE,161,0.0,0.0,64,0.00,,,0.00,WeatherDisplay:10.37,2013-06-09 01:59:00,
2013-06-08 21:04:00,60.6,48.4,30.05,SSE,161,0.0,0.0,64,0.00,,,0.00,WeatherDisplay:10.37,2013-06-09 02:04:00,
2013-06-08 21:10:00,60.3,48.0,30.05,SSE,161,0.0,0.0,64,0.00,,,0.00,WeatherDisplay:10.37,2013-06-09 02:10:00,
2013-06-08 21:15:00,60.1,48.3,30.05,SSE,161,0.0,0.0,65,0.00,,,0.00,WeatherDisplay:10.37,2013-06-09 02:15:00,
2013-06-08 21:20:00,59.7,47.9,30.02,SSE,161,0.0,0.0,65,0.00,,,0.00,WeatherDisplay:10.37,2013-06-09 02:20:00,
2013-06-08 21:25:00,59.5,47.8,30.02,SSE,161,0.0,0.0,65,0.00,,,0.00,WeatherDisplay:10.37,2013-06-09 02:25:00,
2013-06-08 21:30:00,59.4,47.6,30.02,SSE,161,0.0,0.0,65,0.00,,,0.00,WeatherDisplay:10.37,2013-06-09 02:30:00,
2013-06-08 21:35:00,59.2,47.4,30.05,SSE,161,0.0,0.0,65,0.00,,,0.00,WeatherDisplay:10.37,2013-06-09 02:35:00,
2013-06-08 21:41:00,59.2,47.4,30.05,SSE,161,0.0,0.0,65,0.00,,,0.00,WeatherDisplay:10.37,2013-06-09 02:41:00,
2013-06-08 21:46:00,58.8,47.5,30.05,SSE,149,0.0,0.0,66,0.00,,,0.00,WeatherDisplay:10.37,2013-06-09 02:46:00,
2013-06-08 21:51:00,58.8,47.5,30.05,SSE,149,0.0,0.0,66,0.00,,,0.00,WeatherDisplay:10.37,2013-06-09 02:51:00,
2013-06-08 21:56:00,58.6,47.3,30.05,SSE,149,0.0,0.0,66,0.00,,,0.00,WeatherDisplay:10.37,2013-06-09 02:56:00,
2013-06-08 22:01:00,58.5,47.1,30.05,SSE,149,0.0,0.0,66,0.00,,,0.00,WeatherDisplay:10.37,2013-06-09 03:01:00,
2013-06-08 22:07:00,58.3,47.0,30.05,SSE,149,0.0,0.0,66,0.00,,,0.00,WeatherDisplay:10.37,2013-06-09 03:07:00,
2013-06-08 22:12:00,58.1,47.2,30.05,SSE,149,0.0,0.0,67,0.00,,,0.00,WeatherDisplay:10.37,2013-06-09 03:12:00,
2013-06-08 22:17:00,58.1,47.2,30.05,SSE,149,0.0,0.0,67,0.00,,,0.00,WeatherDisplay:10.37,2013-06-09 03:17:00,
2013-06-08 22:22:00,57.9,47.0,30.05,SSE,149,0.0,0.0,67,0.00,,,0.00,WeatherDisplay:10.37,2013-06-09 03:22:00,
2013-06-08 22:27:00,57.7,46.9,30.05,SSE,149,0.0,0.0,67,0.00,,,0.00,WeatherDisplay:10.37,2013-06-09 03:27:00,
2013-06-08 22:33:00,57.7,46.9,30.02,SSE,149,0.0,0.0,67,0.00,,,0.00,WeatherDisplay:10.37,2013-06-09 03:33:00,
2013-06-08 22:38:00,57.6,47.1,30.02,SSE,149,0.0,0.0,68,0.00,,,0.00,WeatherDisplay:10.37,2013-06-09 03:38:00,
2013-06-08 22:43:00,57.6,47.1,30.02,SSE,149,0.0,0.0,68,0.00,,,0.00,WeatherDisplay:10.37,2013-06-09 03:43:00,
2013-06-08 22:48:00,57.4,46.9,30.05,SSE,149,0.0,0.0,68,0.00,,,0.00,WeatherDisplay:10.37,2013-06-09 03:48:00,
2013-06-08 22:53:00,57.4,46.9,30.05,SSE,149,0.0,0.0,68,0.00,,,0.00,WeatherDisplay:10.37,2013-06-09 03:53:00,
2013-06-08 22:58:00,57.4,46.9,30.05,SSE,149,0.0,0.0,68,0.00,,,0.00,WeatherDisplay:10.37,2013-06-09 03:58:00,
2013-06-08 23:01:00,57.2,46.7,30.05,SSE,149,0.0,0.0,68,0.00,,,0.00,WeatherDisplay:10.37,2013-06-09 04:01:00,
2013-06-08 23:03:00,57.2,47.1,30.05,SSE,149,0.0,0.0,69,0.00,,,0.00,WeatherDisplay:10.37,2013-06-09 04:03:00,
2013-06-08 23:05:00,57.2,47.1,30.05,SSE,149,0.0,0.0,69,0.00,,,0.00,WeatherDisplay:10.37,2013-06-09 04:05:00,
2013-06-08 23:10:00,57.2,47.1,30.05,SSE,149,0.0,0.0,69,0.00,,,0.00,WeatherDisplay:10.37,2013-06-09 04:10:00,
2013-06-08 23:15:00,57.2,47.1,30.05,SSE,149,0.0,0.0,69,0.00,,,0.00,WeatherDisplay:10.37,2013-06-09 04:15:00,
2013-06-08 23:20:00,57.2,47.1,30.05,SSE,151,0.0,0.0,69,0.00,,,0.00,WeatherDisplay:10.37,2013-06-09 04:20:00,
2013-06-08 23:25:00,57.2,47.1,30.05,ESE,119,0.0,0.0,69,0.00,,,0.00,WeatherDisplay:10.37,2013-06-09 04:25:00,
2013-06-08 23:30:00,57.0,47.3,30.05,ESE,119,0.0,0.0,70,0.00,,,0.00,WeatherDisplay:10.37,2013-06-09 04:30:00,
2013-06-08 23:35:00,56.8,47.2,30.05,ESE,119,0.0,0.0,70,0.00,,,0.00,WeatherDisplay:10.37,2013-06-09 04:35:00,
2013-06-08 23:40:00,56.8,47.2,30.05,ESE,119,0.0,0.0,70,0.00,,,0.00,WeatherDisplay:10.37,2013-06-09 04:40:00,
2013-06-08 23:46:00,56.7,47.0,30.05,ESE,119,0.0,0.0,70,0.00,,,0.00,WeatherDisplay:10.37,2013-06-09 04:46:00,
2013-06-08 23:51:00,56.7,47.0,30.05,ESE,119,0.0,0.0,70,0.00,,,0.00,WeatherDisplay:10.37,2013-06-09 04:51:00,
2013-06-08 23:56:00,56.7,47.0,30.05,SE,129,0.0,0.0,70,0.00,,,0.00,WeatherDisplay:10.37,2013-06-09 04:56:00,